createdAt,value
2018-12-06T04:23:27.682Z,6.09
2018-12-06T05:22:51.914Z,6.63
2018-12-06T05:42:24.898Z,6.69
2018-12-06T05:43:18.457Z,6.78
2018-12-06T05:44:26.307Z,6.88
2018-12-06T05:45:14.651Z,6.88
2018-12-06T05:46:15.384Z,6.82
2018-12-06T05:47:16.476Z,6.75
2018-12-06T07:03:05.814Z,7.45
2018-12-06T07:03:57.781Z,7.45
2018-12-06T07:04:58.491Z,7.45
2018-12-06T07:06:06.331Z,7.43
2018-12-06T07:08:33.903Z,7.35
2018-12-06T07:09:33.208Z,7.36
2018-12-06T07:10:34.034Z,7.39
2018-12-06T07:11:34.930Z,7.45
2018-12-06T07:12:37.409Z,7.36
2018-12-06T07:13:33.656Z,7.50
2018-12-06T07:14:35.129Z,7.45
2018-12-06T07:15:35.685Z,7.50
2018-12-06T07:16:36.851Z,7.39
2018-12-06T07:19:39.561Z,7.36
2018-12-06T07:20:43.204Z,7.33
2018-12-06T07:22:41.704Z,7.36
2018-12-06T07:23:39.886Z,7.29
2018-12-06T07:24:50.771Z,7.33
2018-12-06T07:25:46.029Z,7.33
2018-12-06T07:26:44.339Z,7.40
2018-12-06T07:29:24.012Z,7.36
2018-12-06T07:30:15.686Z,7.31
2018-12-06T07:31:26.937Z,7.29
2018-12-06T07:32:23.026Z,7.38
2018-12-06T07:33:17.929Z,7.36
2018-12-06T07:45:42.030Z,7.67
2018-12-06T07:46:44.348Z,7.69
2018-12-06T07:52:06.859Z,7.77
2018-12-06T08:01:37.461Z,7.90
2018-12-06T08:02:40.752Z,7.80
2018-12-06T08:14:50.645Z,7.85
2018-12-06T08:15:48.583Z,7.94
2018-12-06T08:16:46.941Z,7.90
2018-12-06T08:19:26.124Z,7.88
2018-12-06T08:20:33.085Z,7.91
2018-12-06T08:23:10.891Z,7.83
2018-12-06T08:24:23.215Z,7.83
2018-12-06T08:32:00.829Z,8.16
2018-12-06T08:40:39.326Z,8.49
2018-12-06T08:49:02.733Z,8.20
2018-12-06T08:50:18.236Z,8.27
2018-12-06T09:16:51.379Z,8.24
2018-12-06T09:20:46.893Z,8.24
2018-12-06T09:22:09.303Z,8.41
2018-12-06T09:25:11.208Z,8.44
2018-12-06T09:25:55.032Z,8.36
2018-12-06T09:28:43.906Z,8.38
2018-12-06T09:32:04.947Z,8.61
2018-12-06T09:38:47.102Z,8.78
2018-12-06T09:46:13.687Z,9.18
2018-12-06T09:47:20.590Z,9.03
2018-12-06T09:52:42.528Z,9.28
2018-12-06T09:53:43.424Z,9.43
2018-12-06T09:53:57.597Z,9.40
2018-12-06T09:56:09.067Z,9.32
2018-12-06T09:56:58.933Z,9.34
2018-12-06T10:00:07.955Z,9.29
2018-12-06T10:01:35.099Z,9.22
2018-12-06T10:02:27.012Z,9.18
2018-12-06T10:04:51.510Z,9.13
2018-12-06T11:33:42.152Z,9.68
2018-12-06T11:42:18.945Z,9.84
2018-12-06T11:43:18.673Z,9.76
2018-12-06T15:38:52.541Z,11.05
2018-12-06T16:56:33.494Z,11.08
2018-12-06T16:58:30.813Z,11.22
2018-12-06T17:00:41.710Z,11.07
2018-12-06T17:01:32.335Z,11.14
2018-12-06T17:59:03.171Z,11.05
2018-12-06T18:01:14.282Z,11.08
2018-12-06T18:02:03.934Z,11.02
2018-12-06T18:03:08.963Z,10.99
2018-12-06T18:04:03.882Z,10.99
2018-12-06T18:05:11.072Z,10.96
2018-12-06T18:06:04.297Z,10.90
2018-12-06T18:07:04.659Z,10.94
2018-12-06T18:08:04.834Z,10.96
2018-12-06T18:11:05.427Z,11.02
2018-12-06T18:12:05.495Z,10.97
2018-12-06T18:13:06.635Z,10.92
2018-12-06T18:14:06.564Z,10.93
2018-12-06T18:15:06.365Z,10.92
2018-12-06T18:16:06.639Z,10.94
2018-12-06T18:17:06.994Z,11.04
2018-12-06T18:18:06.864Z,10.97
2018-12-06T18:19:06.701Z,11.15
2018-12-06T18:20:08.860Z,11.11
2018-12-06T18:21:07.366Z,11.17
2018-12-06T18:22:07.290Z,11.10
2018-12-06T18:23:07.519Z,11.14
2018-12-06T18:24:08.918Z,11.17
2018-12-06T18:27:55.761Z,11.22
2018-12-06T18:28:59.661Z,11.18
2018-12-06T18:31:34.682Z,11.29
2018-12-06T18:31:56.822Z,11.27
2018-12-06T18:32:56.788Z,11.18
2018-12-06T18:33:59.031Z,11.25
2018-12-06T18:34:59.003Z,11.23
2018-12-06T18:37:45.531Z,11.18
2018-12-06T18:39:45.233Z,11.19
2018-12-06T18:41:46.935Z,11.25
2018-12-06T18:46:18.229Z,11.19
2018-12-06T18:47:17.766Z,11.26
2018-12-06T18:50:16.515Z,11.35
2018-12-06T18:50:53.023Z,11.33
2018-12-06T18:51:50.925Z,11.29
2018-12-06T18:52:48.841Z,11.26
2018-12-06T18:53:48.867Z,11.32
2018-12-06T18:54:49.452Z,11.41
2018-12-06T18:55:49.021Z,11.36
2018-12-06T18:56:49.151Z,11.40
2018-12-06T18:57:49.467Z,11.32
2018-12-06T18:58:49.516Z,11.29
2018-12-06T18:59:49.706Z,11.26
2018-12-06T19:00:49.905Z,11.32
2018-12-06T19:01:50.126Z,11.33
2018-12-06T19:02:50.235Z,11.29
2018-12-06T19:03:50.357Z,11.29
2018-12-06T19:04:50.553Z,11.33
2018-12-06T19:05:50.728Z,11.29
2018-12-06T19:06:50.821Z,11.40
2018-12-06T19:07:51.198Z,11.36
2018-12-06T19:08:51.308Z,11.40
2018-12-06T19:09:51.562Z,11.41
2018-12-06T19:10:51.680Z,11.35
2018-12-06T19:11:51.757Z,11.33
2018-12-06T19:12:51.929Z,11.36
2018-12-06T19:13:52.090Z,11.40
2018-12-06T19:14:52.291Z,11.41
2018-12-06T19:15:52.466Z,11.33
2018-12-06T19:16:52.587Z,11.35
2018-12-06T19:17:52.765Z,11.29
2018-12-06T19:18:52.933Z,11.36
2018-12-06T19:19:53.163Z,11.40
2018-12-06T19:20:53.157Z,11.40
2018-12-06T19:21:53.410Z,11.30
2018-12-06T19:22:53.559Z,11.45
2018-12-06T19:23:53.745Z,11.41
2018-12-06T19:24:53.921Z,11.41
2018-12-06T19:25:54.052Z,11.47
2018-12-06T19:26:54.923Z,11.44
2018-12-06T19:27:54.303Z,11.48
2018-12-06T19:28:54.440Z,11.55
2018-12-06T19:29:54.698Z,11.55
2018-12-06T19:30:55.455Z,11.62
2018-12-06T19:31:55.967Z,11.52
2018-12-06T19:32:57.955Z,11.54
2018-12-06T19:33:55.454Z,11.57
2018-12-06T19:34:55.547Z,11.59
2018-12-06T19:35:55.719Z,11.57
2018-12-06T19:36:55.801Z,11.55
2018-12-06T19:37:56.030Z,11.55
2018-12-06T19:38:56.163Z,11.62
2018-12-06T19:39:56.397Z,11.60
2018-12-06T19:40:56.482Z,11.52
2018-12-06T19:41:56.645Z,11.66
2018-12-06T19:42:56.843Z,11.65
2018-12-06T19:43:57.010Z,11.63
2018-12-06T19:44:57.204Z,11.63
2018-12-06T19:45:57.435Z,11.59
2018-12-06T19:46:57.543Z,11.62
2018-12-06T19:47:57.691Z,11.72
2018-12-06T19:48:57.867Z,11.70
2018-12-06T19:49:58.006Z,11.72
2018-12-06T19:50:58.156Z,11.73
2018-12-06T19:51:58.899Z,11.84
2018-12-06T19:52:58.482Z,11.78
2018-12-06T19:53:58.597Z,11.72
2018-12-06T19:54:58.735Z,11.86
2018-12-06T19:55:58.948Z,11.78
2018-12-06T19:56:59.089Z,11.75
2018-12-06T19:57:59.269Z,11.80
2018-12-06T19:58:59.499Z,11.80
2018-12-06T19:59:59.552Z,11.78
2018-12-06T20:00:59.888Z,11.86
2018-12-06T20:02:00.171Z,11.78
2018-12-06T20:03:00.251Z,11.90
2018-12-06T20:04:00.363Z,11.87
2018-12-06T20:05:00.586Z,11.84
2018-12-06T20:06:00.750Z,11.97
2018-12-06T20:07:00.928Z,11.77
2018-12-06T20:08:01.055Z,11.90
2018-12-06T20:09:01.208Z,11.81
2018-12-06T20:10:01.359Z,11.78
2018-12-06T20:11:01.583Z,11.84
2018-12-06T20:12:01.772Z,11.83
2018-12-06T20:13:02.682Z,11.88
2018-12-06T20:14:02.168Z,11.94
2018-12-06T20:15:02.314Z,11.88
2018-12-06T20:16:02.662Z,11.81
2018-12-06T20:17:02.594Z,11.87
2018-12-06T20:18:03.086Z,11.94
2018-12-06T20:19:03.120Z,12.00
2018-12-06T20:20:03.254Z,11.95
2018-12-06T20:21:04.035Z,12.02
2018-12-06T20:22:03.675Z,12.02
2018-12-06T20:23:03.735Z,12.06
2018-12-06T20:24:04.030Z,12.02
2018-12-06T20:25:05.037Z,12.03
2018-12-06T20:26:04.412Z,12.06
2018-12-06T20:27:04.440Z,12.06
2018-12-06T20:28:04.613Z,12.07
2018-12-06T20:29:04.821Z,12.04
2018-12-06T20:30:04.964Z,12.04
2018-12-06T20:31:05.241Z,12.10
2018-12-06T20:32:05.321Z,12.15
2018-12-06T20:33:05.500Z,12.13
2018-12-06T20:34:05.676Z,12.07
2018-12-06T20:35:05.888Z,12.13
2018-12-06T20:36:06.057Z,12.15
2018-12-06T20:37:06.245Z,12.18
2018-12-06T20:38:06.376Z,12.18
2018-12-06T20:39:06.504Z,12.13
2018-12-06T20:40:06.651Z,12.17
2018-12-06T20:41:06.811Z,12.15
2018-12-06T20:42:06.976Z,12.07
2018-12-06T20:43:07.213Z,12.15
2018-12-06T20:44:07.283Z,12.07
2018-12-06T20:45:07.446Z,12.18
2018-12-06T20:46:07.690Z,12.10
2018-12-06T20:47:07.869Z,12.10
2018-12-06T20:48:08.003Z,12.17
2018-12-06T20:49:08.212Z,12.09
2018-12-06T20:50:08.362Z,12.04
2018-12-06T20:51:08.507Z,12.18
2018-12-06T20:52:08.786Z,12.18
2018-12-06T20:53:08.886Z,12.15
2018-12-06T20:54:09.100Z,12.17
2018-12-06T20:55:09.128Z,12.12
2018-12-06T20:56:09.291Z,12.10
2018-12-06T20:57:09.476Z,12.20
2018-12-06T20:58:15.028Z,12.21
2018-12-06T20:59:09.848Z,12.28
2018-12-06T21:00:10.003Z,12.27
2018-12-06T21:01:10.245Z,12.28
2018-12-06T21:02:10.330Z,12.28
2018-12-06T21:03:10.463Z,12.29
2018-12-06T21:04:11.447Z,12.35
2018-12-06T21:05:11.658Z,12.39
2018-12-06T21:06:10.948Z,12.37
2018-12-06T21:07:11.124Z,12.29
2018-12-06T21:08:11.289Z,12.39
2018-12-06T21:09:11.429Z,12.37
2018-12-06T21:10:11.594Z,12.39
2018-12-06T21:11:11.737Z,12.37
2018-12-06T21:12:11.979Z,12.40
2018-12-06T21:13:12.084Z,12.35
2018-12-06T21:14:12.157Z,12.39
2018-12-06T21:15:12.419Z,12.39
2018-12-06T21:16:12.574Z,12.40
2018-12-06T21:17:12.654Z,12.43
2018-12-06T21:18:12.920Z,12.45
2018-12-06T21:19:13.023Z,12.40
2018-12-06T21:20:13.127Z,12.46
2018-12-06T21:21:13.323Z,12.40
2018-12-06T21:22:13.560Z,12.46
2018-12-06T21:23:13.797Z,12.37
2018-12-06T21:24:13.874Z,12.42
2018-12-06T21:25:14.063Z,12.46
2018-12-06T21:26:14.221Z,12.40
2018-12-06T21:27:14.430Z,12.39
2018-12-06T21:28:14.614Z,12.42
2018-12-06T21:29:14.684Z,12.43
2018-12-06T21:30:14.868Z,12.36
2018-12-06T21:31:15.023Z,12.39
2018-12-06T21:32:15.118Z,12.40
2018-12-06T21:33:15.380Z,12.42
2018-12-06T21:34:15.488Z,12.39
2018-12-06T21:35:15.683Z,12.40
2018-12-06T21:36:15.846Z,12.42
2018-12-06T21:37:16.006Z,12.43
2018-12-06T21:38:16.253Z,12.43
2018-12-06T21:39:16.391Z,12.39
2018-12-06T21:40:16.515Z,12.42
2018-12-06T21:41:16.742Z,12.46
2018-12-06T21:42:16.996Z,12.40
2018-12-06T21:43:17.013Z,12.39
2018-12-06T21:44:17.169Z,12.39
2018-12-06T21:45:17.336Z,12.42
2018-12-06T21:46:17.495Z,12.37
2018-12-06T21:47:17.679Z,12.29
2018-12-06T21:48:17.777Z,12.39
2018-12-06T21:49:17.977Z,12.42
2018-12-06T21:50:18.183Z,12.40
2018-12-06T21:51:18.340Z,12.45
2018-12-06T21:52:18.507Z,12.40
2018-12-06T21:53:18.685Z,12.39
2018-12-06T21:54:18.756Z,12.42
2018-12-06T21:55:18.925Z,12.45
2018-12-06T21:56:19.103Z,12.42
2018-12-06T21:57:19.257Z,12.45
2018-12-06T21:58:19.554Z,12.43
2018-12-06T21:59:19.629Z,12.47
2018-12-06T22:00:19.791Z,12.50
2018-12-06T22:01:19.961Z,12.60
2018-12-06T22:02:20.137Z,12.57
2018-12-06T22:03:20.322Z,12.68
2018-12-06T22:04:20.398Z,12.55
2018-12-06T22:05:20.582Z,12.62
2018-12-06T22:06:20.759Z,12.68
2018-12-06T22:07:20.905Z,12.73
2018-12-06T22:08:21.020Z,12.64
2018-12-06T22:09:21.176Z,12.72
2018-12-06T22:10:21.483Z,12.70
2018-12-06T22:11:21.562Z,12.72
2018-12-06T22:12:22.486Z,12.75
2018-12-06T22:13:22.023Z,12.64
2018-12-06T22:14:22.148Z,12.60
2018-12-06T22:15:22.276Z,12.70
2018-12-06T22:16:22.488Z,12.73
2018-12-06T22:17:22.623Z,12.65
2018-12-06T22:18:22.896Z,12.68
2018-12-06T22:19:22.943Z,12.55
2018-12-06T22:20:23.132Z,12.64
2018-12-06T22:21:23.339Z,12.70
2018-12-06T22:22:23.430Z,12.72
2018-12-06T22:23:23.644Z,12.72
2018-12-06T22:24:23.750Z,12.67
2018-12-06T22:25:23.959Z,12.68
2018-12-06T22:26:24.087Z,12.75
2018-12-06T22:27:24.230Z,12.68
2018-12-06T22:28:24.644Z,12.64
2018-12-06T22:29:24.563Z,12.70
2018-12-06T22:30:24.724Z,12.73
2018-12-06T22:31:24.869Z,12.80
2018-12-06T22:32:25.077Z,12.70
2018-12-06T22:33:25.250Z,12.70
2018-12-06T22:34:25.371Z,12.75
2018-12-06T22:35:25.517Z,12.76
2018-12-06T22:36:25.705Z,12.80
2018-12-06T22:37:25.886Z,12.79
2018-12-06T22:38:26.081Z,12.73
2018-12-06T22:39:26.239Z,12.73
2018-12-06T22:40:26.487Z,12.79
2018-12-06T22:41:26.629Z,12.80
2018-12-06T22:42:26.814Z,12.76
2018-12-06T22:43:27.006Z,12.79
2018-12-06T22:44:27.036Z,12.79
2018-12-06T22:45:27.222Z,12.80
2018-12-06T22:46:27.308Z,12.87
2018-12-06T22:47:27.642Z,12.86
2018-12-06T22:48:27.681Z,12.86
2018-12-06T22:49:27.839Z,12.86
